MMCU

General Roberto Fierro Villalobos International Airport

Airport
ICAO code
MMCU
IATA Code
CUU
Summary
ICAO Region
CARSAM
ICAO Territory
Location

Chihuahua, Chihuahua

Serving
Chihuahua
Elevation
4462 ft
Coordinates
28° 42' 10" N , 105° 57' 52" W
KCC
Metar
MMCU 221940Z 23009KT 10SM SKC 35/M09 A2999

General Roberto Fierro Villalobos International Airport serves Chihuahua, Mexico.

Climatology

Semi-arid climate (Köppen climate classification BSh)

Runways

Designator Length Width Surface Rops
4/22 1100 30 ASP Yes/Yes
18R/36L 2403 23 ASP Yes/Yes
18L/36R 2600 45 ASP Yes/Yes

Airport map

Aerial View

SKYbrary Partners:

Safety knowledge contributed by: